Time;durP1;ratioP1;P1;durP2;ratioP2;P2;SDS_P1;SDS_P2;PMS_P1;PMS_P2;Temp;Humidity;BMP_temperature;BMP_pressure;BME280_temperature;BME280_humidity;BME280_pressure;Samples;Min_cycle;Max_cycle;Signal;HPM_P1;HPM_P2
2023/02/17 06:38:41;;;;;;;71.05;30.95;;;;;;;;;;5571045;22;17021965;-96
2023/02/17 06:44:59;;;;;;;;;;;;;;;;;;;;;
2023/02/17 06:47:36;;;;;;;61.13;28.33;;;;;;;;;;6071367;23;20415;-96
2023/02/17 06:50:20;;;;;;;;;;;;;;;;;;;;;
2023/02/17 09:02:11;;;;;;;60.45;32.67;;;;;;;;;;6264740;22;20027;-95
2023/02/17 09:07:57;;;;;;;58.20;32.28;;;;;;;;;;6226789;23;20692;-96
2023/02/17 09:10:26;;;;;;;58.53;32.08;;;;;;;;;;6058285;23;20065;-95
2023/02/17 09:12:53;;;;;;;66.35;34.55;;;;;;;;;;6073269;23;20007;-96
2023/02/17 09:15:22;;;;;;;62.30;34.53;;;;;;;;;;6157226;23;20062;-96
2023/02/17 09:17:52;;;;;;;64.60;36.20;;;;;;;;;;6202734;23;20039;-94
2023/02/17 09:20:41;;;;;;;69.90;35.45;;;;;;;;;;6202553;23;19996;-96
2023/02/17 09:23:24;;;;;;;69.43;36.50;;;;;;;;;;6206778;23;20049;-95
2023/02/17 09:25:50;;;;;;;63.45;32.53;;;;;;;;;;6206490;23;20012;-96
2023/02/17 09:28:18;;;;;;;63.50;33.95;;;;;;;;;;6205892;23;20004;-95
2023/02/17 09:30:49;;;;;;;70.40;36.35;;;;;;;;;;6205698;23;19996;-96
2023/02/17 09:33:24;;;;;;;69.07;35.53;;;;;;;;;;6207328;23;20016;-96
2023/02/17 09:35:55;;;;;;;64.97;34.60;;;;;;;;;;6232834;23;20015;-96
2023/02/17 09:38:23;;;;;;;65.60;35.25;;;;;;;;;;6207883;23;20008;-95
2023/02/17 09:40:52;;;;;;;67.95;37.13;;;;;;;;;;6205900;23;20031;-95
2023/02/17 09:43:34;;;;;;;71.53;38.70;;;;;;;;;;6208807;23;20024;-95
2023/02/17 09:46:43;;;;;;;71.78;37.92;;;;;;;;;;6228348;23;19996;-96
2023/02/17 09:49:15;;;;;;;69.03;35.97;;;;;;;;;;6174737;23;20005;-96
2023/02/17 09:52:04;;;;;;;70.45;36.78;;;;;;;;;;6201890;23;20043;-96
2023/02/17 09:54:57;;;;;;;;;;;;;;;;;;;;;
2023/02/17 10:26:42;;;;;;;79.63;41.40;;;;;;;;;;6124422;23;20029;31
2023/02/17 10:29:41;;;;;;;79.05;42.65;;;;;;;;;;6108655;23;20018;-95
2023/02/17 10:32:50;;;;;;;80.72;41.75;;;;;;;;;;6114745;23;20001;-96
2023/02/17 12:17:34;;;;;;;76.95;48.53;;;;;;;;;;6219853;22;20015;-96
2023/02/17 13:24:22;;;;;;;;;;;;;;;;;;6250378;22;20044;-95
2023/02/17 13:26:50;;;;;;;82.20;55.47;;;;;;;;;;6223304;23;19907;-96
2023/02/17 13:29:29;;;;;;;78.95;55.72;;;;;;;;;;6248754;23;20052;-96
2023/02/17 13:40:19;;;;;;;70.55;54.08;;;;;;;;;;6247210;22;20078;-95
2023/02/17 13:42:56;;;;;;;65.80;48.95;;;;;;;;;;6251205;23;20004;-92
2023/02/17 13:45:28;;;;;;;68.82;49.03;;;;;;;;;;6249775;23;20000;-95
2023/02/17 13:48:01;;;;;;;60.40;44.42;;;;;;;;;;6260127;22;20012;-92
2023/02/17 13:50:27;;;;;;;75.20;50.33;;;;;;;;;;6254363;23;20019;-93
2023/02/17 13:52:56;;;;;;;72.68;50.45;;;;;;;;;;6251461;23;20008;-95
2023/02/17 13:55:49;;;;;;;63.40;48.03;;;;;;;;;;6250280;23;20395;-95
2023/02/17 13:58:22;;;;;;;67.57;48.28;;;;;;;;;;6251284;23;20000;-95
2023/02/17 14:21:04;;;;;;;60.72;43.17;;;;;;;;;;6259795;22;20016;-92
2023/02/17 14:23:51;;;;;;;59.90;40.88;;;;;;;;;;6208466;23;19992;-95
2023/02/17 14:27:20;;;;;;;56.33;40.60;;;;;;;;;;6261379;22;20004;-96
2023/02/17 14:41:35;;;;;;;20.83;13.18;;;;;;;;;;6179893;22;20770;-91
2023/02/17 14:44:01;;;;;;;16.52;11.70;;;;;;;;;;6245770;23;20634;-92
2023/02/17 14:46:27;;;;;;;20.77;11.38;;;;;;;;;;6245459;23;20015;-93
2023/02/17 14:48:53;;;;;;;18.08;11.98;;;;;;;;;;6245850;23;20000;-89
2023/02/17 14:51:38;;;;;;;22.90;13.35;;;;;;;;;;6247948;23;20008;-95
2023/02/17 14:54:17;;;;;;;18.77;11.00;;;;;;;;;;6245631;23;20093;-92
2023/02/17 14:56:57;;;;;;;14.77;9.20;;;;;;;;;;6246137;23;20423;-93
2023/02/17 14:59:25;;;;;;;14.98;9.18;;;;;;;;;;6222471;23;20008;-95
2023/02/17 15:01:52;;;;;;;13.32;9.13;;;;;;;;;;6222571;23;20027;-95
2023/02/17 15:04:18;;;;;;;17.83;8.10;;;;;;;;;;6196322;23;20008;-96
2023/02/17 15:06:46;;;;;;;12.38;7.53;;;;;;;;;;6221293;23;20000;-94
2023/02/17 15:09:15;;;;;;;13.07;6.25;;;;;;;;;;6220635;23;20092;-94
2023/02/17 15:11:44;;;;;;;13.38;6.05;;;;;;;;;;6219235;23;20024;-95
2023/02/17 15:14:14;;;;;;;9.07;5.13;;;;;;;;;;6220630;23;20064;-95
2023/02/17 15:16:54;;;;;;;8.55;3.78;;;;;;;;;;6221141;23;20008;-94
2023/02/17 15:19:20;;;;;;;7.18;4.00;;;;;;;;;;6220665;23;20010;-96
2023/02/17 15:21:52;;;;;;;10.18;4.40;;;;;;;;;;6227930;23;20032;-96
2023/02/17 15:24:34;;;;;;;7.47;2.95;;;;;;;;;;6227616;23;20030;-96
2023/02/17 15:27:01;;;;;;;9.27;3.70;;;;;;;;;;6244426;23;20016;-96
2023/02/17 15:30:02;;;;;;;;;;;;;;;;;;;;;
2023/02/17 15:33:12;;;;;;;10.25;3.35;;;;;;;;;;6106261;23;20022;-97
2023/02/17 15:39:13;;;;;;;6.15;2.78;;;;;;;;;;6249634;22;20071;-96
2023/02/17 15:51:13;;;;;;;8.45;3.63;;;;;;;;;;6189210;23;20015;-96
2023/02/17 15:56:52;;;;;;;9.80;4.32;;;;;;;;;;6180385;23;20005;-95
2023/02/17 16:15:32;;;;;;;;;;;;;;;;;;;;;
2023/02/17 16:18:01;;;;;;;12.80;4.72;;;;;;;;;;6247761;23;20774;-95
2023/02/17 16:32:20;;;;;;;10.63;4.82;;;;;;;;;;6187341;23;20347;-95
2023/02/17 16:34:47;;;;;;;14.57;9.82;;;;;;;;;;6161129;23;20442;-95
2023/02/17 16:37:14;;;;;;;10.38;5.70;;;;;;;;;;6160290;23;20005;-91
2023/02/17 16:39:40;;;;;;;44.33;22.10;;;;;;;;;;6159907;23;20036;-94
2023/02/17 16:42:09;;;;;;;64.20;31.25;;;;;;;;;;6160611;23;20092;-94
2023/02/17 16:44:35;;;;;;;164.93;73.38;;;;;;;;;;6160649;23;20092;-93
2023/02/17 16:47:02;;;;;;;80.05;44.30;;;;;;;;;;6160502;23;20048;-93
2023/02/17 16:49:32;;;;;;;60.03;36.92;;;;;;;;;;6160354;23;20094;-94
2023/02/17 16:51:59;;;;;;;25.45;17.15;;;;;;;;;;6160617;23;20009;-94
2023/02/17 16:54:28;;;;;;;58.92;36.83;;;;;;;;;;6160333;23;20013;-94
2023/02/17 16:56:58;;;;;;;30.15;21.02;;;;;;;;;;6169294;23;20012;-93
2023/02/17 16:59:40;;;;;;;22.73;15.70;;;;;;;;;;6179010;23;20009;-95
2023/02/17 17:02:14;;;;;;;22.13;15.73;;;;;;;;;;6165942;23;20490;-94
2023/02/17 17:04:43;;;;;;;26.25;17.58;;;;;;;;;;6160568;23;20013;-96
2023/02/17 17:07:38;;;;;;;28.05;21.75;;;;;;;;;;6163515;23;20001;-95
2023/02/17 17:10:11;;;;;;;23.77;17.50;;;;;;;;;;6135113;23;20002;-95
2023/02/17 17:12:41;;;;;;;33.13;20.60;;;;;;;;;;6156361;23;20434;-93
2023/02/17 17:26:23;;;;;;;27.65;18.90;;;;;;;;;;6170716;23;20028;-95
2023/02/17 17:28:52;;;;;;;23.80;17.67;;;;;;;;;;6247275;23;20004;-95
2023/02/17 17:31:19;;;;;;;26.35;17.67;;;;;;;;;;6245540;23;20024;-95
2023/02/17 17:33:49;;;;;;;23.58;17.65;;;;;;;;;;6244687;23;20307;-96
2023/02/17 17:36:37;;;;;;;;;;;;;;;;;;;;;
2023/02/17 17:39:07;;;;;;;21.35;15.40;;;;;;;;;;6250579;23;20095;-96
2023/02/17 17:41:36;;;;;;;21.15;15.20;;;;;;;;;;6250310;23;20008;-96
2023/02/17 17:44:32;;;;;;;;;;;;;;;;;;;;;
2023/02/17 17:47:07;;;;;;;26.35;17.70;;;;;;;;;;6246583;23;20099;-95
2023/02/17 17:49:42;;;;;;;25.20;16.45;;;;;;;;;;6244643;23;20075;-94
2023/02/17 17:52:09;;;;;;;20.55;14.52;;;;;;;;;;6245665;23;20004;-94
2023/02/17 17:54:35;;;;;;;28.05;17.52;;;;;;;;;;6245584;23;20019;-94
2023/02/17 17:57:14;;;;;;;19.77;13.20;;;;;;;;;;6245208;23;20000;-93
2023/02/17 17:59:40;;;;;;;22.77;15.70;;;;;;;;;;6219513;23;20398;-90
2023/02/17 18:02:07;;;;;;;19.95;13.13;;;;;;;;;;6244807;23;20001;-90
2023/02/17 18:04:33;;;;;;;17.58;12.00;;;;;;;;;;6245359;23;20016;-90
2023/02/17 18:07:00;;;;;;;20.98;13.95;;;;;;;;;;6244867;23;20004;-93
2023/02/17 18:09:32;;;;;;;19.83;11.57;;;;;;;;;;6246025;23;20014;-94
2023/02/17 18:12:00;;;;;;;22.63;16.43;;;;;;;;;;6244970;23;20414;-91
2023/02/17 18:14:33;;;;;;;18.75;11.30;;;;;;;;;;6245881;23;20012;-95
2023/02/17 18:17:02;;;;;;;16.75;11.68;;;;;;;;;;6244924;23;20437;-94
2023/02/17 18:19:30;;;;;;;16.33;10.90;;;;;;;;;;6245275;23;20032;-93
2023/02/17 18:21:59;;;;;;;16.83;11.38;;;;;;;;;;6246399;23;20099;-95
2023/02/17 18:24:25;;;;;;;21.70;14.20;;;;;;;;;;6247891;23;20082;-95
2023/02/17 18:26:51;;;;;;;23.20;12.30;;;;;;;;;;6248937;22;20016;-96
2023/02/17 18:29:20;;;;;;;9.15;6.93;;;;;;;;;;6248660;23;20024;-95
2023/02/17 18:31:46;;;;;;;16.65;11.15;;;;;;;;;;6221810;23;20334;-94
2023/02/17 18:34:13;;;;;;;12.30;6.97;;;;;;;;;;6246313;23;20012;-94
2023/02/17 18:36:39;;;;;;;10.88;5.93;;;;;;;;;;6221476;23;20028;-93
2023/02/17 18:39:05;;;;;;;10.13;6.38;;;;;;;;;;6221812;23;20333;-95
2023/02/17 18:41:33;;;;;;;9.73;6.70;;;;;;;;;;6221069;23;20000;-93
2023/02/17 18:44:00;;;;;;;13.63;8.38;;;;;;;;;;6220580;23;20011;-94
2023/02/17 18:46:27;;;;;;;15.95;8.35;;;;;;;;;;6222827;23;20087;-94
2023/02/17 18:48:54;;;;;;;12.23;7.30;;;;;;;;;;6222027;23;20027;-95
2023/02/17 18:57:36;;;;;;;11.43;5.53;;;;;;;;;;6253680;23;20096;-96
2023/02/17 19:00:07;;;;;;;8.10;5.10;;;;;;;;;;6224308;23;20464;-93
2023/02/17 19:02:38;;;;;;;8.38;4.93;;;;;;;;;;6221657;23;20004;-94
2023/02/17 19:05:05;;;;;;;10.50;6.10;;;;;;;;;;6223224;23;20008;-94
2023/02/17 19:07:31;;;;;;;10.57;5.22;;;;;;;;;;6235184;22;20019;-92
2023/02/17 19:09:57;;;;;;;24.65;13.48;;;;;;;;;;6234096;23;20008;-94
2023/02/17 19:12:23;;;;;;;13.30;7.03;;;;;;;;;;6223018;23;20436;-95
2023/02/17 19:14:54;;;;;;;13.48;7.32;;;;;;;;;;6221044;23;20430;-95
2023/02/17 19:17:21;;;;;;;16.73;8.50;;;;;;;;;;6221549;23;20005;-94
2023/02/17 19:19:47;;;;;;;25.83;14.45;;;;;;;;;;6221696;23;20213;-95
2023/02/17 19:22:13;;;;;;;26.63;15.07;;;;;;;;;;6221683;23;20004;-94
2023/02/17 19:24:39;;;;;;;13.98;7.82;;;;;;;;;;6245673;23;20038;-94
2023/02/17 19:27:38;;;;;;;30.13;18.33;;;;;;;;;;6221452;23;20286;-93
2023/02/17 19:30:07;;;;;;;11.35;7.57;;;;;;;;;;6221427;23;20004;-95
2023/02/17 19:32:51;;;;;;;21.80;9.90;;;;;;;;;;6221146;23;20074;-96
2023/02/17 19:35:16;;;;;;;;;;;;;;;;;;6221351;23;20336;-95
2023/02/17 19:37:43;;;;;;;11.00;7.20;;;;;;;;;;6220990;23;19935;-96
2023/02/17 19:40:11;;;;;;;28.58;14.98;;;;;;;;;;6221814;23;20003;-96
2023/02/17 19:42:43;;;;;;;16.45;8.30;;;;;;;;;;6221157;23;20069;-95
2023/02/17 19:45:12;;;;;;;19.92;10.25;;;;;;;;;;6221577;23;20015;-95
2023/02/17 19:47:38;;;;;;;47.97;22.23;;;;;;;;;;6221627;23;20031;-95
2023/02/17 19:50:05;;;;;;;10.38;4.70;;;;;;;;;;6223167;23;20107;-96
2023/02/17 19:52:36;;;;;;;66.30;27.00;;;;;;;;;;6222678;23;20010;-96
2023/02/17 19:55:02;;;;;;;47.78;19.20;;;;;;;;;;6222668;23;20040;-95
2023/02/17 19:57:28;;;;;;;46.38;18.60;;;;;;;;;;6221886;23;20091;-95
2023/02/17 19:59:54;;;;;;;9.43;5.40;;;;;;;;;;6247721;23;20009;-95
2023/02/17 20:02:32;;;;;;;41.38;17.55;;;;;;;;;;6221070;23;20008;-96
2023/02/17 20:04:58;;;;;;;41.85;18.38;;;;;;;;;;6244867;23;20027;-96
2023/02/17 20:07:36;;;;;;;75.07;31.08;;;;;;;;;;6220168;23;20326;-96
2023/02/17 20:10:15;;;;;;;42.85;18.95;;;;;;;;;;6245553;23;20028;-95
2023/02/17 20:12:41;;;;;;;45.35;18.08;;;;;;;;;;6244902;23;20465;-96
2023/02/17 20:15:10;;;;;;;70.18;26.25;;;;;;;;;;6218661;23;20012;-96
2023/02/17 20:17:38;;;;;;;35.08;15.43;;;;;;;;;;6218293;23;20008;-94
2023/02/17 20:20:25;;;;;;;105.53;34.17;;;;;;;;;;6218229;23;20091;-95
2023/02/17 20:25:32;;;;;;;63.88;23.50;;;;;;;;;;6213923;22;20066;-96
2023/02/17 20:28:11;;;;;;;;;;;;;;;;;;;;;
2023/02/17 20:30:37;;;;;;;119.38;42.08;;;;;;;;;;6215085;23;20084;-95
2023/02/17 20:33:03;;;;;;;25.33;10.15;;;;;;;;;;6214564;23;20001;-96
2023/02/17 20:35:34;;;;;;;6.65;4.20;;;;;;;;;;6213518;23;20013;-96
2023/02/17 20:38:07;;;;;;;51.38;19.73;;;;;;;;;;6190760;23;20031;-94
2023/02/17 20:46:27;;;;;;;9.20;4.80;;;;;;;;;;6096633;23;20224;-95
2023/02/17 20:49:00;;;;;;;27.40;11.20;;;;;;;;;;6171482;23;20008;-94
2023/02/17 20:51:56;;;;;;;11.60;4.70;;;;;;;;;;6218950;23;20005;-94
2023/02/17 20:55:13;;;;;;;;;;;;;;;;;;;;;
2023/02/17 20:57:38;;;;;;;110.60;36.50;;;;;;;;;;6208867;23;20004;-95
2023/02/17 21:00:05;;;;;;;8.65;4.60;;;;;;;;;;6213534;23;20015;-94
2023/02/17 21:03:03;;;;;;;7.78;4.28;;;;;;;;;;6188721;23;20061;-96
2023/02/17 21:09:21;;;;;;;12.73;5.82;;;;;;;;;;6081798;23;20088;-93
2023/02/17 21:12:04;;;;;;;44.63;16.00;;;;;;;;;;6187456;23;20036;-95
2023/02/17 21:14:56;;;;;;;22.15;8.98;;;;;;;;;;6212585;23;20016;-94
2023/02/17 21:17:35;;;;;;;83.55;29.58;;;;;;;;;;6136154;23;20362;-95
2023/02/17 21:23:26;;;;;;;6.13;3.80;;;;;;;;;;6199885;23;20013;-95
2023/02/17 21:26:14;;;;;;;14.52;5.72;;;;;;;;;;6217788;23;20019;-95
2023/02/17 21:32:08;;;;;;;82.13;26.58;;;;;;;;;;6068016;23;20081;-96
2023/02/17 21:46:31;;;;;;;26.05;10.63;;;;;;;;;;6242244;22;20028;-96
2023/02/17 21:52:30;;;;;;;7.38;4.00;;;;;;;;;;6179398;23;20058;-96
2023/02/17 21:54:56;;;;;;;6.47;4.03;;;;;;;;;;6217987;23;20425;-96
2023/02/17 21:58:10;;;;;;;5.70;3.50;;;;;;;;;;6220573;23;20031;-96
2023/02/17 22:00:39;;;;;;;43.78;17.08;;;;;;;;;;6077123;23;20015;-96
2023/02/17 22:06:04;;;;;;;6.45;3.60;;;;;;;;;;6197163;23;20353;-95
2023/02/17 22:08:30;;;;;;;55.92;18.67;;;;;;;;;;6220794;23;20023;-95
2023/02/17 22:10:56;;;;;;;38.80;13.48;;;;;;;;;;6246028;23;20436;-96
2023/02/17 22:13:31;;;;;;;9.48;4.55;;;;;;;;;;6246437;23;20103;-95
2023/02/17 22:16:07;;;;;;;18.27;7.35;;;;;;;;;;6219613;23;20008;-95
2023/02/17 22:18:36;;;;;;;16.67;6.10;;;;;;;;;;6220845;23;20008;-94
2023/02/17 22:23:55;;;;;;;11.77;4.47;;;;;;;;;;6247320;23;20004;-96
2023/02/17 22:26:28;;;;;;;93.97;27.77;;;;;;;;;;6220944;23;20000;-96
2023/02/17 22:29:07;;;;;;;36.22;11.40;;;;;;;;;;6245426;23;20004;-96
2023/02/17 22:34:39;;;;;;;25.73;9.75;;;;;;;;;;6123939;23;20021;-96
2023/02/17 22:37:19;;;;;;;30.63;11.90;;;;;;;;;;6114118;23;20186;-94
2023/02/17 22:40:26;;;;;;;7.50;3.72;;;;;;;;;;6113199;23;20009;-96
2023/02/17 22:43:00;;;;;;;5.95;3.65;;;;;;;;;;6187408;22;20334;-95
2023/02/17 22:45:26;;;;;;;114.03;33.15;;;;;;;;;;6219969;23;20043;-95
2023/02/17 22:48:02;;;;;;;75.50;23.38;;;;;;;;;;6245774;23;20012;-95
2023/02/17 22:50:33;;;;;;;79.78;24.88;;;;;;;;;;6244822;23;20325;-95
2023/02/17 22:53:23;;;;;;;;;;;;;;;;;;;;;
2023/02/17 22:56:06;;;;;;;63.63;21.95;;;;;;;;;;6245296;23;20067;-95
2023/02/17 22:58:35;;;;;;;59.40;20.58;;;;;;;;;;6244646;23;20055;-95
2023/02/17 23:01:15;;;;;;;;;;;;;;;;;;;;;
2023/02/17 23:04:07;;;;;;;33.95;14.00;;;;;;;;;;6245803;23;20087;-95
2023/02/17 23:09:31;;;;;;;66.70;23.33;;;;;;;;;;6245775;23;20008;-95
2023/02/17 23:11:58;;;;;;;33.33;13.85;;;;;;;;;;6245084;23;20493;-96
2023/02/17 23:14:30;;;;;;;31.05;11.60;;;;;;;;;;6244523;23;20349;-96
2023/02/17 23:17:19;;;;;;;49.65;17.75;;;;;;;;;;6244950;23;20008;-95
2023/02/17 23:19:58;;;;;;;55.03;19.02;;;;;;;;;;6163499;23;20011;-95
2023/02/17 23:22:24;;;;;;;83.35;26.20;;;;;;;;;;6244694;23;20008;-95
2023/02/17 23:24:50;;;;;;;10.07;4.95;;;;;;;;;;6245034;23;20092;-94
2023/02/17 23:27:16;;;;;;;41.17;15.02;;;;;;;;;;6218566;23;20086;-96
2023/02/17 23:32:46;;;;;;;17.70;6.55;;;;;;;;;;6245403;23;20082;-96
2023/02/17 23:35:13;;;;;;;8.77;3.67;;;;;;;;;;6218279;23;20425;-94
2023/02/17 23:37:52;;;;;;;13.00;4.90;;;;;;;;;;6219184;23;20008;-95
2023/02/17 23:40:19;;;;;;;10.52;5.00;;;;;;;;;;6215524;23;20011;-95
2023/02/17 23:42:53;;;;;;;179.15;49.85;;;;;;;;;;6218666;23;20024;-95
2023/02/17 23:45:19;;;;;;;;;;;;;;;;;;6244336;23;20139;-95
2023/02/17 23:48:03;;;;;;;30.50;10.13;;;;;;;;;;6219809;23;19904;-95
2023/02/17 23:50:51;;;;;;;;;;;;;;;;;;;;;
2023/02/17 23:53:20;;;;;;;85.07;25.05;;;;;;;;;;6245061;23;20095;-95
2023/02/17 23:55:46;;;;;;;10.98;4.88;;;;;;;;;;6244196;23;20012;-96
2023/02/17 23:58:23;;;;;;;;;;;;;;;;;;;;;
